createdAt,value
2022-08-18T00:02:05.251Z,46.74
2022-08-18T00:04:49.066Z,46.95
2022-08-18T00:07:21.768Z,47.66
2022-08-18T00:09:51.878Z,47.83
2022-08-18T00:12:25.068Z,48.11
2022-08-18T00:14:54.670Z,47.93
2022-08-18T00:17:23.756Z,46.76
2022-08-18T00:19:52.224Z,46.88
2022-08-18T00:22:22.417Z,47.05
2022-08-18T00:24:55.025Z,47.74
2022-08-18T00:27:28.547Z,47.14
2022-08-18T00:29:59.734Z,46.80
2022-08-18T00:32:33.638Z,47.56
2022-08-18T00:35:08.498Z,47.94
2022-08-18T00:37:37.375Z,47.63
2022-08-18T00:40:10.741Z,47.93
2022-08-18T00:42:45.879Z,47.55
2022-08-18T00:45:21.378Z,47.36
2022-08-18T00:47:49.713Z,47.70
2022-08-18T00:50:23.138Z,47.82
2022-08-18T00:52:58.465Z,47.99
2022-08-18T00:55:30.045Z,48.22
2022-08-18T00:58:06.636Z,47.86
2022-08-18T01:00:36.269Z,48.53
2022-08-18T01:03:13.042Z,48.34
2022-08-18T01:05:49.368Z,47.98
2022-08-18T01:08:21.367Z,48.50
2022-08-18T01:11:01.718Z,48.56
2022-08-18T01:13:34.067Z,48.70
2022-08-18T01:16:23.997Z,48.55
2022-08-18T01:19:09.894Z,48.97
2022-08-18T01:21:53.738Z,48.92
2022-08-18T01:24:51.433Z,49.46
2022-08-18T01:27:19.224Z,49.41
2022-08-18T01:29:48.955Z,49.53
2022-08-18T01:32:20.447Z,49.89
2022-08-18T01:34:50.519Z,49.86
2022-08-18T01:37:21.535Z,49.67
2022-08-18T01:41:25.813Z,49.77
2022-08-18T01:42:43.385Z,50.36
2022-08-18T01:45:13.463Z,50.11
2022-08-18T01:47:57.995Z,50.20
2022-08-18T01:50:27.455Z,50.33
2022-08-18T01:52:55.831Z,50.45
2022-08-18T01:55:28.379Z,50.54
2022-08-18T01:57:57.150Z,50.51
2022-08-18T02:00:26.356Z,50.52
2022-08-18T02:03:00.240Z,50.66
2022-08-18T02:08:07.412Z,51.10
2022-08-18T02:10:37.678Z,51.19
2022-08-18T02:13:06.267Z,51.10
2022-08-18T02:15:34.851Z,51.09
2022-08-18T02:18:03.478Z,51.19
2022-08-18T02:20:32.298Z,51.14
2022-08-18T02:23:00.648Z,51.05
2022-08-18T02:25:28.996Z,50.99
2022-08-18T02:27:59.652Z,50.97
2022-08-18T02:30:28.008Z,51.16
2022-08-18T02:32:56.734Z,51.11
2022-08-18T02:35:25.050Z,51.39
2022-08-18T02:37:54.547Z,51.26
2022-08-18T02:40:23.150Z,51.15
2022-08-18T02:42:52.801Z,51.32
2022-08-18T02:45:23.704Z,51.36
2022-08-18T02:47:54.324Z,51.47
2022-08-18T02:50:23.002Z,51.55
2022-08-18T02:52:51.412Z,51.65
2022-08-18T02:55:20.129Z,51.53
2022-08-18T02:57:50.118Z,51.63
2022-08-18T03:00:22.796Z,51.83
2022-08-18T03:02:53.498Z,52.06
2022-08-18T03:05:21.844Z,51.85
2022-08-18T03:07:51.191Z,52.07
2022-08-18T03:10:31.520Z,52.13
2022-08-18T03:13:02.665Z,52.22
2022-08-18T03:15:32.691Z,52.23
2022-08-18T03:18:02.440Z,52.10
2022-08-18T03:20:31.611Z,52.20
2022-08-18T03:23:05.865Z,52.08
2022-08-18T03:25:45.394Z,52.12
2022-08-18T03:28:14.287Z,52.27
2022-08-18T03:30:44.503Z,52.34
2022-08-18T03:33:12.930Z,52.36
2022-08-18T03:35:42.059Z,52.58
2022-08-18T03:38:10.459Z,52.40
2022-08-18T03:40:39.333Z,52.39
2022-08-18T03:43:23.617Z,52.40
2022-08-18T03:46:01.876Z,52.25
2022-08-18T03:48:30.563Z,52.48
2022-08-18T03:51:06.770Z,52.55
2022-08-18T03:53:35.633Z,52.83
2022-08-18T03:56:09.451Z,52.56
2022-08-18T03:58:38.357Z,52.67
2022-08-18T04:01:08.154Z,52.98
2022-08-18T04:03:36.981Z,52.62
2022-08-18T04:06:08.667Z,52.65
2022-08-18T04:08:40.481Z,52.57
2022-08-18T04:11:08.943Z,52.93
2022-08-18T04:13:37.691Z,52.96
2022-08-18T04:16:08.392Z,52.98
2022-08-18T04:18:37.095Z,53.06
2022-08-18T04:21:08.784Z,53.01
2022-08-18T04:23:39.474Z,52.98
2022-08-18T04:26:19.355Z,53.11
2022-08-18T04:28:47.870Z,53.13
2022-08-18T04:31:19.446Z,53.47
2022-08-18T04:33:47.751Z,53.29
2022-08-18T04:36:20.717Z,53.16
2022-08-18T04:38:49.877Z,53.23
2022-08-18T04:41:18.527Z,53.20
2022-08-18T04:43:48.751Z,53.44
2022-08-18T04:46:18.472Z,53.46
2022-08-18T04:48:58.788Z,53.76
2022-08-18T04:52:37.209Z,53.68
2022-08-18T04:54:17.397Z,53.99
2022-08-18T04:56:45.811Z,53.83
2022-08-18T04:59:15.708Z,54.19
2022-08-18T05:01:47.781Z,54.35
2022-08-18T05:04:18.550Z,54.35
2022-08-18T05:06:47.899Z,54.37
2022-08-18T05:09:23.133Z,54.39
2022-08-18T05:11:52.234Z,54.70
2022-08-18T05:14:21.449Z,54.76
2022-08-18T05:16:52.012Z,54.89
2022-08-18T05:19:26.068Z,54.73
2022-08-18T05:21:59.621Z,55.10
2022-08-18T05:24:37.004Z,55.29
2022-08-18T05:27:08.155Z,55.40
2022-08-18T05:29:41.858Z,55.50
2022-08-18T05:32:41.171Z,55.61
2022-08-18T05:35:08.624Z,55.27
2022-08-18T05:37:44.960Z,55.46
2022-08-18T05:40:16.576Z,55.61
2022-08-18T05:42:45.734Z,55.40
2022-08-18T05:45:18.017Z,55.38
2022-08-18T05:47:47.904Z,55.58
2022-08-18T05:50:21.041Z,55.84
2022-08-18T05:52:58.074Z,55.72
2022-08-18T05:55:50.185Z,56.01
2022-08-18T05:58:33.166Z,55.80
2022-08-18T06:01:08.881Z,55.76
2022-08-18T06:03:46.944Z,55.72
2022-08-18T06:06:21.771Z,55.71
2022-08-18T06:08:57.756Z,55.54
2022-08-18T06:11:26.824Z,55.46
2022-08-18T06:13:59.508Z,55.63
2022-08-18T06:16:44.497Z,55.25
2022-08-18T06:19:43.891Z,55.05
2022-08-18T06:22:24.430Z,55.08
2022-08-18T06:25:05.147Z,54.92
2022-08-18T06:27:51.181Z,54.64
2022-08-18T06:30:25.080Z,54.18
2022-08-18T06:33:15.109Z,53.86
2022-08-18T06:35:52.090Z,54.02
2022-08-18T06:38:39.619Z,53.83
2022-08-18T06:41:41.996Z,54.09
2022-08-18T06:44:09.863Z,53.96
2022-08-18T06:46:46.320Z,53.71
2022-08-18T06:49:26.460Z,53.92
2022-08-18T06:51:56.190Z,53.38
2022-08-18T06:54:30.859Z,53.16
2022-08-18T06:57:00.035Z,53.17
2022-08-18T06:59:31.242Z,53.17
2022-08-18T07:02:03.939Z,52.98
2022-08-18T07:04:38.458Z,52.93
2022-08-18T07:07:22.025Z,52.40
2022-08-18T07:09:53.284Z,52.12
2022-08-18T07:12:32.153Z,52.15
2022-08-18T07:15:05.699Z,51.54
2022-08-18T07:17:43.229Z,51.06
2022-08-18T07:20:23.716Z,51.20
2022-08-18T07:23:08.272Z,51.25
2022-08-18T07:25:43.507Z,50.94
2022-08-18T07:28:30.687Z,50.66
2022-08-18T07:31:18.252Z,50.63
2022-08-18T07:33:55.731Z,50.49
2022-08-18T07:36:29.248Z,50.09
2022-08-18T07:39:08.640Z,49.92
2022-08-18T07:41:45.007Z,49.48
2022-08-18T07:44:25.296Z,49.35
2022-08-18T07:47:01.123Z,49.40
2022-08-18T07:49:36.246Z,48.98
2022-08-18T07:52:35.824Z,48.59
2022-08-18T07:55:10.002Z,48.58
2022-08-18T07:57:55.603Z,48.71
2022-08-18T08:03:35.791Z,48.76
2022-08-18T08:06:11.712Z,48.37
2022-08-18T08:08:47.346Z,48.44
2022-08-18T08:11:28.813Z,48.27
2022-08-18T08:14:11.943Z,49.01
2022-08-18T08:16:49.806Z,48.67
2022-08-18T08:20:02.889Z,48.93
2022-08-18T08:22:38.847Z,49.19
2022-08-18T08:25:44.656Z,49.02
2022-08-18T08:28:23.368Z,48.27
2022-08-18T08:31:33.059Z,47.71
2022-08-18T08:34:05.300Z,47.62
2022-08-18T08:36:39.198Z,47.68
2022-08-18T08:39:15.636Z,47.78
2022-08-18T08:41:51.318Z,46.95
2022-08-18T08:44:26.159Z,46.93
2022-08-18T08:47:00.240Z,46.20
2022-08-18T08:49:38.281Z,45.76
2022-08-18T08:52:18.738Z,45.49
2022-08-18T08:54:52.374Z,45.45
2022-08-18T08:57:27.967Z,45.59
2022-08-18T08:59:59.845Z,44.86
2022-08-18T09:02:48.164Z,44.39
2022-08-18T09:05:21.469Z,44.29
2022-08-18T09:08:26.459Z,44.43
2022-08-18T09:11:50.347Z,43.68
2022-08-18T09:14:58.342Z,42.83
2022-08-18T09:18:03.199Z,42.15
2022-08-18T09:21:05.129Z,41.58
2022-08-18T09:23:43.907Z,41.72
2022-08-18T09:26:40.105Z,40.91
2022-08-18T09:29:24.175Z,40.46
2022-08-18T09:32:44.490Z,40.50
2022-08-18T09:35:44.952Z,40.00
2022-08-18T09:38:53.370Z,38.46
2022-08-18T09:41:43.355Z,38.75
2022-08-18T09:44:21.197Z,38.20
2022-08-18T09:47:00.122Z,38.14
2022-08-18T09:52:58.967Z,38.33
2022-08-18T09:58:58.781Z,38.33
2022-08-18T10:01:41.145Z,37.68
2022-08-18T10:04:32.650Z,37.99
2022-08-18T10:07:43.524Z,38.24
2022-08-18T10:11:02.118Z,38.39
2022-08-18T10:13:21.584Z,38.66
2022-08-18T10:16:10.215Z,37.87
2022-08-18T10:19:14.642Z,38.14
2022-08-18T10:22:08.168Z,37.69
2022-08-18T10:24:43.742Z,37.40
2022-08-18T10:27:49.234Z,36.07
2022-08-18T10:34:16.518Z,36.42
2022-08-18T10:36:53.108Z,35.91
2022-08-18T10:39:24.448Z,34.35
2022-08-18T10:42:04.392Z,34.78
2022-08-18T10:44:42.846Z,34.35
2022-08-18T10:47:24.941Z,32.97
2022-08-18T10:50:05.584Z,32.71
2022-08-18T10:53:17.066Z,33.20
2022-08-18T10:55:57.088Z,33.21
2022-08-18T10:58:55.122Z,33.30
2022-08-18T11:01:54.250Z,33.47
2022-08-18T11:04:34.461Z,33.47
2022-08-18T11:07:12.103Z,33.15
2022-08-18T11:09:50.637Z,33.15
2022-08-18T11:13:00.366Z,33.61
2022-08-18T11:15:50.959Z,33.59
2022-08-18T11:18:42.641Z,32.81
2022-08-18T11:21:34.239Z,32.75
2022-08-18T11:24:15.932Z,31.64
2022-08-18T11:26:52.473Z,31.50
2022-08-18T11:29:32.152Z,30.81
2022-08-18T11:32:11.265Z,31.46
2022-08-18T11:34:52.034Z,31.48
2022-08-18T11:37:28.183Z,30.54
2022-08-18T11:43:40.953Z,29.48
2022-08-18T11:46:16.384Z,28.85
2022-08-18T11:48:52.704Z,28.16
2022-08-18T11:51:26.983Z,27.32
2022-08-18T11:54:00.046Z,27.15
2022-08-18T11:56:35.756Z,28.01
2022-08-18T11:59:09.251Z,28.06
2022-08-18T12:01:51.265Z,28.44
2022-08-18T12:04:31.337Z,27.28
2022-08-18T12:07:06.009Z,27.87
2022-08-18T12:12:32.572Z,26.78
2022-08-18T12:15:13.922Z,26.44
2022-08-18T12:20:36.580Z,27.72
2022-08-18T12:23:04.938Z,27.47
2022-08-18T12:25:34.157Z,26.91
2022-08-18T12:28:02.549Z,26.39
2022-08-18T12:30:30.858Z,26.56
2022-08-18T12:33:05.615Z,26.17
2022-08-18T12:35:41.941Z,26.44
2022-08-18T12:38:13.733Z,26.51
2022-08-18T12:40:44.277Z,27.17
2022-08-18T12:43:13.282Z,26.57
2022-08-18T12:45:42.434Z,27.12
2022-08-18T12:48:11.968Z,26.03
2022-08-18T12:50:54.266Z,26.78
2022-08-18T12:53:29.032Z,25.93
2022-08-18T12:55:59.287Z,26.11
2022-08-18T12:58:29.540Z,26.22
2022-08-18T13:00:58.740Z,26.07
2022-08-18T13:03:27.320Z,26.03
2022-08-18T13:05:57.445Z,25.82
2022-08-18T13:08:33.816Z,24.87
2022-08-18T13:11:21.701Z,26.05
2022-08-18T13:13:55.932Z,26.33
2022-08-18T13:16:38.523Z,25.62
2022-08-18T13:19:08.108Z,25.76
2022-08-18T13:21:42.939Z,25.92
2022-08-18T13:24:12.771Z,25.63
2022-08-18T13:26:46.162Z,25.61
2022-08-18T13:29:17.568Z,25.51
2022-08-18T13:31:55.894Z,25.61
2022-08-18T13:34:29.738Z,25.65
2022-08-18T13:36:59.930Z,25.68
2022-08-18T13:39:33.680Z,25.79
2022-08-18T13:42:26.717Z,26.01
2022-08-18T13:44:53.247Z,26.07
2022-08-18T13:47:22.641Z,25.76
2022-08-18T13:49:58.394Z,26.09
2022-08-18T13:52:41.154Z,25.70
2022-08-18T13:55:16.779Z,26.14
2022-08-18T13:57:53.432Z,25.86
2022-08-18T14:00:29.377Z,26.65
2022-08-18T14:03:03.051Z,26.50
2022-08-18T14:05:51.773Z,27.03
2022-08-18T14:08:22.110Z,26.73
2022-08-18T14:10:57.120Z,26.77
2022-08-18T14:13:25.563Z,26.87
2022-08-18T14:15:59.185Z,27.70
2022-08-18T14:18:30.807Z,27.64
2022-08-18T14:21:22.985Z,27.54
2022-08-18T14:24:14.357Z,27.80
2022-08-18T14:26:50.108Z,28.52
2022-08-18T14:29:46.337Z,27.92
2022-08-18T14:32:09.320Z,28.01
2022-08-18T14:34:50.647Z,27.97
2022-08-18T14:37:19.867Z,28.58
2022-08-18T14:39:53.861Z,29.10
2022-08-18T14:42:41.239Z,29.99
2022-08-18T14:45:31.574Z,29.55
2022-08-18T14:48:06.604Z,29.70
2022-08-18T14:50:49.064Z,29.28
2022-08-18T14:53:20.203Z,28.84
2022-08-18T14:55:52.442Z,28.80
2022-08-18T14:58:21.064Z,28.42
2022-08-18T15:00:56.482Z,28.74
2022-08-18T15:03:31.480Z,28.64
2022-08-18T15:06:04.866Z,29.05
2022-08-18T15:08:35.336Z,29.44
2022-08-18T15:11:11.738Z,29.86
2022-08-18T15:13:43.559Z,29.22
2022-08-18T15:16:14.499Z,28.60
2022-08-18T15:18:43.219Z,29.29
2022-08-18T15:21:35.567Z,28.55
2022-08-18T15:24:25.037Z,29.42
2022-08-18T15:27:03.259Z,28.54
2022-08-18T15:29:35.853Z,29.66
2022-08-18T15:32:10.103Z,29.33
2022-08-18T15:34:47.246Z,30.05
2022-08-18T15:37:24.162Z,30.16
2022-08-18T15:40:05.888Z,29.93
2022-08-18T15:42:35.633Z,30.23
2022-08-18T15:45:11.954Z,30.58
2022-08-18T15:47:42.598Z,30.90
2022-08-18T15:50:25.747Z,30.63
2022-08-18T15:52:58.127Z,30.77
2022-08-18T15:55:35.876Z,30.54
2022-08-18T15:58:11.149Z,31.34
2022-08-18T16:00:43.826Z,30.98
2022-08-18T16:03:16.817Z,31.23
2022-08-18T16:05:52.950Z,31.25
2022-08-18T16:08:23.914Z,31.83
2022-08-18T16:10:54.019Z,32.30
2022-08-18T16:13:26.450Z,31.63
2022-08-18T16:15:54.782Z,32.00
2022-08-18T16:18:23.158Z,30.63
2022-08-18T16:20:52.746Z,30.94
2022-08-18T16:23:25.431Z,31.86
2022-08-18T16:25:53.751Z,32.20
2022-08-18T16:28:34.769Z,33.24
2022-08-18T16:31:04.141Z,33.28
2022-08-18T16:33:32.639Z,32.94
2022-08-18T16:36:05.875Z,33.37
2022-08-18T16:38:34.570Z,33.42
2022-08-18T16:41:11.306Z,33.55
2022-08-18T16:43:47.363Z,33.34
2022-08-18T16:46:21.389Z,33.70
2022-08-18T16:48:51.590Z,33.69
2022-08-18T16:51:24.078Z,33.83
2022-08-18T16:53:54.478Z,33.18
2022-08-18T16:56:26.028Z,32.97
2022-08-18T16:59:13.634Z,32.77
2022-08-18T17:02:00.175Z,33.61
2022-08-18T17:04:33.585Z,33.77
2022-08-18T17:07:04.550Z,34.24
2022-08-18T17:09:34.267Z,34.42
2022-08-18T17:12:03.369Z,34.38
2022-08-18T17:14:34.689Z,34.73
2022-08-18T17:17:03.286Z,35.52
2022-08-18T17:19:35.055Z,35.72
2022-08-18T17:22:05.268Z,36.20
2022-08-18T17:24:33.975Z,36.08
2022-08-18T17:27:12.277Z,35.80
2022-08-18T17:30:05.200Z,35.88
2022-08-18T17:32:44.138Z,36.69
2022-08-18T17:35:17.801Z,36.96
2022-08-18T17:37:54.580Z,36.93
2022-08-18T17:40:32.130Z,37.02
2022-08-18T17:43:01.896Z,37.22
2022-08-18T17:45:34.868Z,36.34
2022-08-18T17:48:09.945Z,36.86
2022-08-18T17:51:02.576Z,36.73
2022-08-18T17:53:34.233Z,36.86
2022-08-18T17:56:09.228Z,36.19
2022-08-18T17:58:42.359Z,35.91
2022-08-18T18:01:13.713Z,36.10
2022-08-18T18:03:44.103Z,36.21
2022-08-18T18:06:20.243Z,36.66
2022-08-18T18:08:55.383Z,36.50
2022-08-18T18:11:35.118Z,36.63
2022-08-18T18:14:26.035Z,36.80
2022-08-18T18:17:11.785Z,37.27
2022-08-18T18:19:43.806Z,37.65
2022-08-18T18:22:20.954Z,37.50
2022-08-18T18:24:53.933Z,36.96
2022-08-18T18:27:35.554Z,37.12
2022-08-18T18:30:08.103Z,37.00
2022-08-18T18:32:59.447Z,37.11
2022-08-18T18:35:30.894Z,37.70
2022-08-18T18:38:05.618Z,37.84
2022-08-18T18:40:39.237Z,37.66
2022-08-18T18:43:24.961Z,37.93
2022-08-18T18:46:29.921Z,37.90
2022-08-18T18:49:24.628Z,37.67
2022-08-18T18:52:05.035Z,37.95
2022-08-18T18:54:59.704Z,38.39
2022-08-18T18:57:39.858Z,37.86
2022-08-18T19:00:20.266Z,38.29
2022-08-18T19:03:05.123Z,38.50
2022-08-18T19:05:40.024Z,38.62
2022-08-18T19:08:28.404Z,38.67
2022-08-18T19:11:07.797Z,39.12
2022-08-18T19:13:43.458Z,38.55
2022-08-18T19:16:23.338Z,38.64
2022-08-18T19:19:36.027Z,38.70
2022-08-18T19:22:03.083Z,38.97
2022-08-18T19:24:42.362Z,38.56
2022-08-18T19:27:23.441Z,38.97
2022-08-18T19:29:56.915Z,39.19
2022-08-18T19:32:39.625Z,39.72
2022-08-18T19:35:13.872Z,39.84
2022-08-18T19:38:04.610Z,39.37
2022-08-18T19:40:45.009Z,39.94
2022-08-18T19:43:26.635Z,39.57
2022-08-18T19:46:10.568Z,39.81
2022-08-18T19:48:44.715Z,39.24
2022-08-18T19:51:28.471Z,39.86
2022-08-18T19:54:28.774Z,39.72
2022-08-18T19:57:22.635Z,40.58
2022-08-18T20:00:16.227Z,40.21
2022-08-18T20:03:18.553Z,41.11
2022-08-18T20:05:59.258Z,42.22
2022-08-18T20:09:25.159Z,41.85
2022-08-18T20:12:14.045Z,42.15
2022-08-18T20:14:43.687Z,42.72
2022-08-18T20:17:22.631Z,42.69
2022-08-18T20:20:18.278Z,42.64
2022-08-18T20:22:48.588Z,43.39
2022-08-18T20:25:42.849Z,43.76
2022-08-18T20:28:34.175Z,43.20
2022-08-18T20:31:17.346Z,43.72
2022-08-18T20:34:03.991Z,44.09
2022-08-18T20:36:37.538Z,44.38
2022-08-18T20:39:42.922Z,44.17
2022-08-18T20:42:53.680Z,44.27
2022-08-18T20:45:42.526Z,44.67
2022-08-18T20:48:40.227Z,44.18
2022-08-18T20:51:12.432Z,44.20
2022-08-18T20:54:13.234Z,44.26
2022-08-18T20:56:48.433Z,44.95
2022-08-18T20:59:23.775Z,45.14
2022-08-18T21:01:59.569Z,44.80
2022-08-18T21:04:46.466Z,44.63
2022-08-18T21:07:35.943Z,45.00
2022-08-18T21:10:13.866Z,44.68
2022-08-18T21:12:52.120Z,44.83
2022-08-18T21:15:27.176Z,44.44
2022-08-18T21:18:00.970Z,44.97
2022-08-18T21:20:31.452Z,44.76
2022-08-18T21:23:07.843Z,44.71
2022-08-18T21:25:37.043Z,44.53
2022-08-18T21:28:07.751Z,44.87
2022-08-18T21:30:38.028Z,44.92
2022-08-18T21:33:21.126Z,45.09
2022-08-18T21:35:49.585Z,44.93
2022-08-18T21:38:27.923Z,45.22
2022-08-18T21:41:01.108Z,44.85
2022-08-18T21:43:49.039Z,45.03
2022-08-18T21:46:27.771Z,45.06
2022-08-18T21:48:59.690Z,45.46
2022-08-18T21:51:31.491Z,45.36
2022-08-18T21:54:01.120Z,45.50
2022-08-18T21:56:32.556Z,45.56
2022-08-18T21:59:13.480Z,45.51
2022-08-18T22:01:52.454Z,45.74
2022-08-18T22:04:28.119Z,45.52
2022-08-18T22:07:01.237Z,45.96
2022-08-18T22:09:52.497Z,45.62
2022-08-18T22:12:48.304Z,45.71
2022-08-18T22:15:21.447Z,45.86
2022-08-18T22:17:57.136Z,46.03
2022-08-18T22:20:48.157Z,46.15
2022-08-18T22:23:55.199Z,46.20
2022-08-18T22:26:28.106Z,46.33
2022-08-18T22:29:01.958Z,46.52
2022-08-18T22:31:34.043Z,46.59
2022-08-18T22:34:07.676Z,46.85
2022-08-18T22:36:41.154Z,46.96
2022-08-18T22:39:12.934Z,46.83
2022-08-18T22:41:42.699Z,47.12
2022-08-18T22:44:11.093Z,47.08
2022-08-18T22:46:39.461Z,47.14
2022-08-18T22:49:09.396Z,47.41
2022-08-18T22:51:38.044Z,47.60
2022-08-18T22:54:09.802Z,47.33
2022-08-18T22:56:39.352Z,47.40
2022-08-18T22:59:22.510Z,47.57
2022-08-18T23:01:52.545Z,47.91
2022-08-18T23:04:25.450Z,47.81
2022-08-18T23:06:54.808Z,47.99
2022-08-18T23:09:26.772Z,48.09
2022-08-18T23:11:58.072Z,48.36
2022-08-18T23:14:28.282Z,48.63
2022-08-18T23:16:56.560Z,48.34
2022-08-18T23:19:26.471Z,48.54
2022-08-18T23:21:55.216Z,48.63
2022-08-18T23:24:24.882Z,48.88
2022-08-18T23:26:53.521Z,48.95
2022-08-18T23:29:23.366Z,49.17
2022-08-18T23:31:52.762Z,49.36
2022-08-18T23:34:27.255Z,49.50
2022-08-18T23:36:58.854Z,49.51
2022-08-18T23:39:28.844Z,49.65
2022-08-18T23:41:57.494Z,50.23
2022-08-18T23:44:28.011Z,50.05
2022-08-18T23:46:57.934Z,50.13
2022-08-18T23:49:29.125Z,50.43
2022-08-18T23:51:58.534Z,50.46
2022-08-18T23:54:29.524Z,50.73
2022-08-18T23:56:58.254Z,50.82
2022-08-18T23:59:28.496Z,50.92
